sensor_id;sensor_type;location;lat;lon;timestamp;pressure;altitude;pressure_sealevel;temperature;humidity
52319;BME280;38258;51.148;14.068;2023-03-18T00:01:31;97950.44;;;5.55;54.15
52319;BME280;38258;51.148;14.068;2023-03-18T00:03:59;97947.06;;;5.48;54.42
52319;BME280;38258;51.148;14.068;2023-03-18T00:06:27;97927.50;;;5.27;54.95
52319;BME280;38258;51.148;14.068;2023-03-18T00:08:54;97952.22;;;5.50;54.42
52319;BME280;38258;51.148;14.068;2023-03-18T00:11:23;97957.72;;;5.28;55.52
52319;BME280;38258;51.148;14.068;2023-03-18T00:13:53;97961.31;;;5.19;56.13
52319;BME280;38258;51.148;14.068;2023-03-18T00:16:20;97971.63;;;5.22;56.30
52319;BME280;38258;51.148;14.068;2023-03-18T00:18:48;97963.19;;;5.09;56.30
52319;BME280;38258;51.148;14.068;2023-03-18T00:21:15;97961.31;;;5.19;55.37
52319;BME280;38258;51.148;14.068;2023-03-18T00:23:43;97946.66;;;5.17;54.86
52319;BME280;38258;51.148;14.068;2023-03-18T00:26:13;97939.81;;;5.11;55.04
52319;BME280;38258;51.148;14.068;2023-03-18T00:28:41;97942.47;;;5.06;55.17
52319;BME280;38258;51.148;14.068;2023-03-18T00:31:11;97926.03;;;5.07;54.46
52319;BME280;38258;51.148;14.068;2023-03-18T00:33:41;97957.91;;;5.14;55.43
52319;BME280;38258;51.148;14.068;2023-03-18T00:36:13;97944.22;;;5.06;56.04
52319;BME280;38258;51.148;14.068;2023-03-18T00:38:41;97947.53;;;5.17;55.53
52319;BME280;38258;51.148;14.068;2023-03-18T00:41:08;97947.78;;;4.95;57.12
52319;BME280;38258;51.148;14.068;2023-03-18T00:43:41;97943.16;;;5.18;55.16
52319;BME280;38258;51.148;14.068;2023-03-18T00:46:18;97944.22;;;5.04;56.97
52319;BME280;38258;51.148;14.068;2023-03-18T00:48:46;97938.16;;;5.05;56.94
52319;BME280;38258;51.148;14.068;2023-03-18T00:51:14;97924.38;;;5.02;55.90
52319;BME280;38258;51.148;14.068;2023-03-18T00:53:43;97932.28;;;4.92;57.24
52319;BME280;38258;51.148;14.068;2023-03-18T00:56:11;97946.66;;;5.15;55.60
52319;BME280;38258;51.148;14.068;2023-03-18T00:58:38;97951.09;;;5.07;56.71
52319;BME280;38258;51.148;14.068;2023-03-18T01:01:07;97949.44;;;5.01;56.79
52319;BME280;38258;51.148;14.068;2023-03-18T01:03:35;97938.16;;;5.07;56.27
52319;BME280;38258;51.148;14.068;2023-03-18T01:06:03;97947.47;;;5.20;55.53
52319;BME280;38258;51.148;14.068;2023-03-18T01:08:30;97920.81;;;5.11;55.06
52319;BME280;38258;51.148;14.068;2023-03-18T01:10:57;97932.09;;;5.06;56.48
52319;BME280;38258;51.148;14.068;2023-03-18T01:13:24;97932.09;;;5.06;56.40
52319;BME280;38258;51.148;14.068;2023-03-18T01:15:51;97943.28;;;5.10;56.71
52319;BME280;38258;51.148;14.068;2023-03-18T01:18:19;97937.16;;;5.14;56.33
52319;BME280;38258;51.148;14.068;2023-03-18T01:20:47;97944.16;;;5.07;57.17
52319;BME280;38258;51.148;14.068;2023-03-18T01:23:16;97935.63;;;5.01;56.57
52319;BME280;38258;51.148;14.068;2023-03-18T01:25:43;97946.69;;;5.14;56.14
52319;BME280;38258;51.148;14.068;2023-03-18T01:28:14;97926.84;;;5.13;56.54
52319;BME280;38258;51.148;14.068;2023-03-18T01:30:42;97932.19;;;5.00;58.02
52319;BME280;38258;51.148;14.068;2023-03-18T01:33:09;97926.03;;;5.07;56.39
52319;BME280;38258;51.148;14.068;2023-03-18T01:35:36;97905.44;;;4.97;57.29
52319;BME280;38258;51.148;14.068;2023-03-18T01:38:05;97911.56;;;4.91;58.42
52319;BME280;38258;51.148;14.068;2023-03-18T01:40:34;97928.50;;;5.15;55.63
52319;BME280;38258;51.148;14.068;2023-03-18T01:43:12;97929.53;;;5.03;56.96
52319;BME280;38258;51.148;14.068;2023-03-18T01:45:41;97924.50;;;4.92;57.63
52319;BME280;38258;51.148;14.068;2023-03-18T01:48:13;97928.72;;;5.00;57.34
52319;BME280;38258;51.148;14.068;2023-03-18T01:50:42;97926.97;;;5.02;56.97
52319;BME280;38258;51.148;14.068;2023-03-18T01:53:14;97913.31;;;4.90;57.15
52319;BME280;38258;51.148;14.068;2023-03-18T01:55:44;97927.94;;;4.94;57.01
52319;BME280;38258;51.148;14.068;2023-03-18T01:58:16;97924.66;;;4.80;58.44
52319;BME280;38258;51.148;14.068;2023-03-18T02:19:56;97918.59;;;4.83;58.52
52319;BME280;38258;51.148;14.068;2023-03-18T02:22:28;97938.47;;;4.80;58.28
52319;BME280;38258;51.148;14.068;2023-03-18T02:25:10;97939.22;;;4.90;56.70
52319;BME280;38258;51.148;14.068;2023-03-18T02:27:42;97936.66;;;4.87;56.93
52319;BME280;38258;51.148;14.068;2023-03-18T02:30:15;97942.78;;;4.81;58.42
52319;BME280;38258;51.148;14.068;2023-03-18T02:32:44;97931.56;;;4.83;58.47
52319;BME280;38258;51.148;14.068;2023-03-18T02:35:12;97934.19;;;4.76;58.42
52319;BME280;38258;51.148;14.068;2023-03-18T02:37:40;97934.19;;;4.76;58.44
52319;BME280;38258;51.148;14.068;2023-03-18T02:40:12;97934.13;;;4.83;57.53
52319;BME280;38258;51.148;14.068;2023-03-18T02:42:41;97939.28;;;4.86;57.66
52319;BME280;38258;51.148;14.068;2023-03-18T02:45:12;97938.50;;;4.77;58.21
52319;BME280;38258;51.148;14.068;2023-03-18T02:48:01;97942.78;;;4.81;57.84
52319;BME280;38258;51.148;14.068;2023-03-18T02:50:30;97940.25;;;4.75;57.86
52319;BME280;38258;51.148;14.068;2023-03-18T02:52:59;97941.28;;;4.62;59.36
52319;BME280;38258;51.148;14.068;2023-03-18T02:55:26;97936.00;;;4.70;57.72
52319;BME280;38258;51.148;14.068;2023-03-18T02:57:54;97951.50;;;4.76;58.05
52319;BME280;38258;51.148;14.068;2023-03-18T03:00:22;97956.78;;;4.65;58.76
52319;BME280;38258;51.148;14.068;2023-03-18T03:02:49;97952.47;;;4.65;58.69
52319;BME280;38258;51.148;14.068;2023-03-18T03:05:16;97952.56;;;4.59;59.51
52319;BME280;38258;51.148;14.068;2023-03-18T03:07:43;97957.69;;;4.62;58.94
52319;BME280;38258;51.148;14.068;2023-03-18T03:10:10;97937.97;;;4.49;57.92
52319;BME280;38258;51.148;14.068;2023-03-18T03:12:39;97953.44;;;4.55;59.75
52319;BME280;38258;51.148;14.068;2023-03-18T03:15:10;97967.13;;;4.65;58.91
52319;BME280;38258;51.148;14.068;2023-03-18T03:17:43;97963.72;;;4.63;58.77
52319;BME280;38258;51.148;14.068;2023-03-18T03:20:10;97960.34;;;4.56;59.72
52319;BME280;38258;51.148;14.068;2023-03-18T03:22:38;97970.66;;;4.61;58.54
52319;BME280;38258;51.148;14.068;2023-03-18T03:25:06;97981.13;;;4.50;59.64
52319;BME280;38258;51.148;14.068;2023-03-18T03:27:33;97957.88;;;4.44;58.88
52319;BME280;38258;51.148;14.068;2023-03-18T03:30:01;97972.53;;;4.46;59.84
52319;BME280;38258;51.148;14.068;2023-03-18T03:32:29;97975.13;;;4.46;59.66
52319;BME280;38258;51.148;14.068;2023-03-18T03:34:56;97971.81;;;4.32;60.88
52319;BME280;38258;51.148;14.068;2023-03-18T03:37:23;97975.25;;;4.35;60.32
52319;BME280;38258;51.148;14.068;2023-03-18T03:39:50;97984.63;;;4.46;58.98
52319;BME280;38258;51.148;14.068;2023-03-18T03:42:17;97976.94;;;4.38;59.79
52319;BME280;38258;51.148;14.068;2023-03-18T03:44:44;97977.81;;;4.35;60.51
52319;BME280;38258;51.148;14.068;2023-03-18T03:47:11;97971.00;;;4.27;60.32
52319;BME280;38258;51.148;14.068;2023-03-18T03:49:40;97985.66;;;4.26;60.87
52319;BME280;38258;51.148;14.068;2023-03-18T03:52:08;97988.25;;;4.28;60.86
52319;BME280;38258;51.148;14.068;2023-03-18T03:54:37;97984.00;;;4.23;61.41
52319;BME280;38258;51.148;14.068;2023-03-18T03:57:06;97986.53;;;4.27;60.82
52319;BME280;38258;51.148;14.068;2023-03-18T03:59:33;97991.75;;;4.22;61.50
52319;BME280;38258;51.148;14.068;2023-03-18T04:02:13;98003.03;;;4.16;61.91
52319;BME280;38258;51.148;14.068;2023-03-18T04:04:42;97989.97;;;4.27;60.78
52319;BME280;38258;51.148;14.068;2023-03-18T04:07:17;97947.94;;;4.00;61.03
52319;BME280;38258;51.148;14.068;2023-03-18T04:09:45;97989.22;;;4.19;61.83
52319;BME280;38258;51.148;14.068;2023-03-18T04:12:13;97996.09;;;4.18;62.06
52319;BME280;38258;51.148;14.068;2023-03-18T04:14:48;97967.72;;;4.09;61.45
52319;BME280;38258;51.148;14.068;2023-03-18T04:17:16;97973.81;;;4.02;61.56
52319;BME280;38258;51.148;14.068;2023-03-18T04:19:44;97996.16;;;4.12;61.81
52319;BME280;38258;51.148;14.068;2023-03-18T04:22:11;98002.16;;;4.19;61.20
52319;BME280;38258;51.148;14.068;2023-03-18T04:24:38;97997.84;;;4.15;61.56
52319;BME280;38258;51.148;14.068;2023-03-18T04:27:07;97987.63;;;4.02;62.32
52319;BME280;38258;51.148;14.068;2023-03-18T04:29:33;98006.56;;;4.06;62.00
52319;BME280;38258;51.148;14.068;2023-03-18T04:32:01;98005.75;;;4.01;62.16
52319;BME280;38258;51.148;14.068;2023-03-18T04:34:32;98003.34;;;3.73;65.41
52319;BME280;38258;51.148;14.068;2023-03-18T04:37:01;98007.56;;;3.91;63.14
52319;BME280;38258;51.148;14.068;2023-03-18T04:39:29;98014.50;;;3.84;63.87
52319;BME280;38258;51.148;14.068;2023-03-18T04:41:56;98017.91;;;3.91;62.22
52319;BME280;38258;51.148;14.068;2023-03-18T04:44:23;98013.63;;;3.84;63.61
52319;BME280;38258;51.148;14.068;2023-03-18T04:46:51;98009.38;;;3.75;64.28
52319;BME280;38258;51.148;14.068;2023-03-18T04:49:20;98024.88;;;3.81;63.26
52319;BME280;38258;51.148;14.068;2023-03-18T04:51:47;98018.91;;;3.70;64.78
52319;BME280;38258;51.148;14.068;2023-03-18T04:54:22;98032.69;;;3.70;64.11
52319;BME280;38258;51.148;14.068;2023-03-18T04:56:53;98034.44;;;3.70;63.72
52319;BME280;38258;51.148;14.068;2023-03-18T04:59:20;98026.69;;;3.66;64.50
52319;BME280;38258;51.148;14.068;2023-03-18T05:01:48;98037.09;;;3.59;64.67
52319;BME280;38258;51.148;14.068;2023-03-18T05:04:16;98040.44;;;3.70;63.28
52319;BME280;38258;51.148;14.068;2023-03-18T05:06:50;98029.28;;;3.63;64.41
52319;BME280;38258;51.148;14.068;2023-03-18T05:09:22;98035.38;;;3.56;64.29
52319;BME280;38258;51.148;14.068;2023-03-18T05:11:50;98017.28;;;3.53;63.96
52319;BME280;38258;51.148;14.068;2023-03-18T05:14:22;98043.06;;;3.65;63.95
52319;BME280;38258;51.148;14.068;2023-03-18T05:16:50;98032.81;;;3.47;65.60
52319;BME280;38258;51.148;14.068;2023-03-18T05:19:18;98032.81;;;3.48;65.29
52319;BME280;38258;51.148;14.068;2023-03-18T05:21:52;98019.94;;;3.41;65.81
52319;BME280;38258;51.148;14.068;2023-03-18T05:24:20;98041.50;;;3.39;66.56
52319;BME280;38258;51.148;14.068;2023-03-18T05:26:48;98037.94;;;3.54;64.83
52319;BME280;38258;51.148;14.068;2023-03-18T05:29:17;98034.63;;;3.28;67.73
52319;BME280;38258;51.148;14.068;2023-03-18T05:32:07;98044.09;;;3.33;68.24
52319;BME280;38258;51.148;14.068;2023-03-18T05:34:37;98039.75;;;3.40;66.64
52319;BME280;38258;51.148;14.068;2023-03-18T05:37:06;98039.81;;;3.31;68.24
52319;BME280;38258;51.148;14.068;2023-03-18T05:39:38;98038.03;;;3.39;67.49
52319;BME280;38258;51.148;14.068;2023-03-18T05:42:11;98051.00;;;3.33;67.81
52319;BME280;38258;51.148;14.068;2023-03-18T05:44:38;98050.97;;;3.41;67.04
52319;BME280;38258;51.148;14.068;2023-03-18T05:47:09;98052.69;;;3.42;67.77
52319;BME280;38258;51.148;14.068;2023-03-18T05:49:48;98058.75;;;3.37;68.29
52319;BME280;38258;51.148;14.068;2023-03-18T05:52:21;98048.38;;;3.39;68.14
52319;BME280;38258;51.148;14.068;2023-03-18T05:54:50;98044.00;;;3.49;66.81
52319;BME280;38258;51.148;14.068;2023-03-18T05:57:25;98058.69;;;3.48;66.99
52319;BME280;38258;51.148;14.068;2023-03-18T05:59:58;98064.75;;;3.43;68.90
52319;BME280;38258;51.148;14.068;2023-03-18T06:02:26;98072.53;;;3.33;70.26
52319;BME280;38258;51.148;14.068;2023-03-18T06:04:53;98069.91;;;3.41;69.24
52319;BME280;38258;51.148;14.068;2023-03-18T06:07:20;98066.47;;;3.45;69.46
52319;BME280;38258;51.148;14.068;2023-03-18T06:09:47;98046.75;;;3.22;68.18
52319;BME280;38258;51.148;14.068;2023-03-18T06:12:14;98082.00;;;3.41;69.26
52319;BME280;38258;51.148;14.068;2023-03-18T06:14:42;98075.16;;;3.32;70.39
52319;BME280;38258;51.148;14.068;2023-03-18T06:17:10;98076.81;;;3.42;69.01
52319;BME280;38258;51.148;14.068;2023-03-18T06:19:38;98067.31;;;3.46;68.96
52319;BME280;38258;51.148;14.068;2023-03-18T06:22:07;98073.31;;;3.51;68.57
52319;BME280;38258;51.148;14.068;2023-03-18T06:24:34;98062.19;;;3.39;69.91
52319;BME280;38258;51.148;14.068;2023-03-18T06:27:01;98074.19;;;3.53;68.88
52319;BME280;38258;51.148;14.068;2023-03-18T06:29:28;98079.38;;;3.48;70.05
52319;BME280;38258;51.148;14.068;2023-03-18T06:32:05;98074.19;;;3.53;69.26
52319;BME280;38258;51.148;14.068;2023-03-18T06:34:32;98062.06;;;3.57;69.30
52319;BME280;38258;51.148;14.068;2023-03-18T06:37:01;98063.84;;;3.51;70.48
52319;BME280;38258;51.148;14.068;2023-03-18T06:39:28;98076.72;;;3.58;70.61
52319;BME280;38258;51.148;14.068;2023-03-18T06:41:56;98064.66;;;3.58;69.72
52319;BME280;38258;51.148;14.068;2023-03-18T06:44:29;98085.41;;;3.52;71.57
52319;BME280;38258;51.148;14.068;2023-03-18T06:47:05;98089.63;;;3.62;70.30
52319;BME280;38258;51.148;14.068;2023-03-18T06:49:36;98086.16;;;3.70;70.36
52319;BME280;38258;51.148;14.068;2023-03-18T06:52:11;98085.22;;;3.80;69.57
52319;BME280;38258;51.148;14.068;2023-03-18T06:54:40;98079.97;;;3.92;70.38
52319;BME280;38258;51.148;14.068;2023-03-18T06:57:07;98053.22;;;3.95;69.35
52319;BME280;38258;51.148;14.068;2023-03-18T06:59:35;98074.81;;;3.94;69.17
52319;BME280;38258;51.148;14.068;2023-03-18T07:02:04;98088.53;;;4.04;68.48
52319;BME280;38258;51.148;14.068;2023-03-18T07:04:33;98092.78;;;4.13;69.64
52319;BME280;38258;51.148;14.068;2023-03-18T07:06:59;98073.81;;;4.10;67.94
52319;BME280;38258;51.148;14.068;2023-03-18T07:09:26;98066.91;;;4.14;68.01
52319;BME280;38258;51.148;14.068;2023-03-18T07:11:56;98080.63;;;4.24;67.20
52319;BME280;38258;51.148;14.068;2023-03-18T07:14:24;98089.25;;;4.21;68.07
52319;BME280;38258;51.148;14.068;2023-03-18T07:16:53;98094.38;;;4.31;68.03
52319;BME280;38258;51.148;14.068;2023-03-18T07:19:22;98082.22;;;4.41;66.77
52319;BME280;38258;51.148;14.068;2023-03-18T07:21:49;98085.47;;;4.64;66.40
52319;BME280;38258;51.148;14.068;2023-03-18T07:24:16;98091.50;;;4.66;65.76
52319;BME280;38258;51.148;14.068;2023-03-18T07:26:45;98073.19;;;4.80;66.32
52319;BME280;38258;51.148;14.068;2023-03-18T07:29:15;98087.91;;;4.80;64.96
52319;BME280;38258;51.148;14.068;2023-03-18T07:31:42;98080.88;;;4.91;65.24
52319;BME280;38258;51.148;14.068;2023-03-18T07:34:09;98081.59;;;5.04;65.74
52319;BME280;38258;51.148;14.068;2023-03-18T07:36:37;98076.53;;;4.95;65.37
52319;BME280;38258;51.148;14.068;2023-03-18T07:39:05;98086.81;;;5.03;65.61
52319;BME280;38258;51.148;14.068;2023-03-18T07:41:32;98086.78;;;5.06;65.95
52319;BME280;38258;51.148;14.068;2023-03-18T07:43:59;98091.59;;;5.38;64.49
52319;BME280;38258;51.148;14.068;2023-03-18T07:46:27;98083.69;;;5.48;64.17
52319;BME280;38258;51.148;14.068;2023-03-18T07:48:55;98091.22;;;5.70;62.83
52319;BME280;38258;51.148;14.068;2023-03-18T07:51:22;98092.53;;;5.97;64.75
52319;BME280;38258;51.148;14.068;2023-03-18T07:53:50;98099.38;;;6.06;63.05
52319;BME280;38258;51.148;14.068;2023-03-18T07:56:17;98092.22;;;6.20;61.18
52319;BME280;38258;51.148;14.068;2023-03-18T07:58:44;98090.19;;;6.40;61.39
52319;BME280;38258;51.148;14.068;2023-03-18T08:01:12;98099.75;;;6.38;62.40
52319;BME280;38258;51.148;14.068;2023-03-18T08:03:40;98088.91;;;6.65;62.24
52319;BME280;38258;51.148;14.068;2023-03-18T08:06:08;98102.88;;;6.60;63.24
52319;BME280;38258;51.148;14.068;2023-03-18T08:08:35;98092.41;;;6.63;60.31
52319;BME280;38258;51.148;14.068;2023-03-18T08:11:04;98082.88;;;6.63;62.01
52319;BME280;38258;51.148;14.068;2023-03-18T08:13:32;98090.72;;;7.09;62.67
52319;BME280;38258;51.148;14.068;2023-03-18T08:15:59;98090.97;;;6.95;60.59
52319;BME280;38258;51.148;14.068;2023-03-18T08:18:26;98094.81;;;6.75;62.00
52319;BME280;38258;51.148;14.068;2023-03-18T08:20:52;98102.19;;;6.48;61.04
52319;BME280;38258;51.148;14.068;2023-03-18T08:23:19;98117.06;;;6.40;61.14
52319;BME280;38258;51.148;14.068;2023-03-18T08:25:46;98097.19;;;6.36;62.31
52319;BME280;38258;51.148;14.068;2023-03-18T08:28:16;98088.38;;;6.45;63.18
52319;BME280;38258;51.148;14.068;2023-03-18T08:30:43;98086.78;;;6.38;62.08
52319;BME280;38258;51.148;14.068;2023-03-18T08:33:11;98103.19;;;6.41;62.63
52319;BME280;38258;51.148;14.068;2023-03-18T08:35:38;98100.41;;;6.52;62.53
52319;BME280;38258;51.148;14.068;2023-03-18T08:38:06;98099.53;;;6.51;62.26
52319;BME280;38258;51.148;14.068;2023-03-18T08:40:33;98104.56;;;6.62;61.67
52319;BME280;38258;51.148;14.068;2023-03-18T08:43:01;98113.13;;;6.68;61.15
52319;BME280;38258;51.148;14.068;2023-03-18T08:45:29;98099.94;;;6.78;63.26
52319;BME280;38258;51.148;14.068;2023-03-18T08:47:56;98107.53;;;7.38;63.00
52319;BME280;38258;51.148;14.068;2023-03-18T08:50:23;98108.34;;;7.81;62.51
52319;BME280;38258;51.148;14.068;2023-03-18T08:52:53;98114.19;;;7.52;60.31
52319;BME280;38258;51.148;14.068;2023-03-18T08:55:22;98103.59;;;7.61;62.10
52319;BME280;38258;51.148;14.068;2023-03-18T08:57:49;98105.66;;;7.45;61.25
52319;BME280;38258;51.148;14.068;2023-03-18T09:00:18;98105.06;;;7.30;60.57
52319;BME280;38258;51.148;14.068;2023-03-18T09:02:47;98103.13;;;7.42;61.89
52319;BME280;38258;51.148;14.068;2023-03-18T09:05:14;98115.31;;;7.40;61.23
52319;BME280;38258;51.148;14.068;2023-03-18T09:07:40;98110.97;;;7.39;61.19
52319;BME280;38258;51.148;14.068;2023-03-18T09:10:08;98110.47;;;7.63;62.73
52319;BME280;38258;51.148;14.068;2023-03-18T09:12:37;98119.09;;;7.66;61.23
52319;BME280;38258;51.148;14.068;2023-03-18T09:15:05;98111.91;;;7.78;59.65
52319;BME280;38258;51.148;14.068;2023-03-18T09:17:34;98129.41;;;7.70;60.73
52319;BME280;38258;51.148;14.068;2023-03-18T09:20:03;98118.13;;;8.11;58.84
52319;BME280;38258;51.148;14.068;2023-03-18T09:22:31;98122.28;;;8.57;59.70
52319;BME280;38258;51.148;14.068;2023-03-18T09:24:58;98122.50;;;8.48;59.79
52319;BME280;38258;51.148;14.068;2023-03-18T09:27:25;98109.41;;;8.49;56.98
52319;BME280;38258;51.148;14.068;2023-03-18T09:29:52;98111.03;;;8.55;58.83
52319;BME280;38258;51.148;14.068;2023-03-18T09:32:18;98111.09;;;8.54;60.75
52319;BME280;38258;51.148;14.068;2023-03-18T09:34:45;98104.66;;;8.67;59.11
52319;BME280;38258;51.148;14.068;2023-03-18T09:37:13;98112.53;;;9.00;59.19
52319;BME280;38258;51.148;14.068;2023-03-18T09:39:40;98109.78;;;9.68;59.74
52319;BME280;38258;51.148;14.068;2023-03-18T09:42:22;98095.56;;;9.17;56.59
52319;BME280;38258;51.148;14.068;2023-03-18T09:44:54;98105.22;;;9.45;56.41
52319;BME280;38258;51.148;14.068;2023-03-18T09:47:50;98102.56;;;10.07;54.04
52319;BME280;38258;51.148;14.068;2023-03-18T09:50:29;98113.53;;;10.18;55.88
52319;BME280;38258;51.148;14.068;2023-03-18T09:53:14;98107.28;;;9.94;56.28
52319;BME280;38258;51.148;14.068;2023-03-18T09:55:45;98098.34;;;9.72;55.49
52319;BME280;38258;51.148;14.068;2023-03-18T09:58:19;98121.94;;;9.69;56.36
52319;BME280;38258;51.148;14.068;2023-03-18T10:00:47;98115.59;;;9.48;56.77
52319;BME280;38258;51.148;14.068;2023-03-18T10:03:26;98122.84;;;9.37;57.93
52319;BME280;38258;51.148;14.068;2023-03-18T10:05:57;98115.00;;;9.68;57.69
52319;BME280;38258;51.148;14.068;2023-03-18T10:08:41;98109.34;;;9.84;59.48
52319;BME280;38258;51.148;14.068;2023-03-18T10:11:18;98116.84;;;9.65;58.17
52319;BME280;38258;51.148;14.068;2023-03-18T10:13:54;98116.38;;;9.82;56.94
52319;BME280;38258;51.148;14.068;2023-03-18T10:16:28;98110.47;;;9.45;58.31
52319;BME280;38258;51.148;14.068;2023-03-18T10:18:56;98117.03;;;9.58;57.76
52319;BME280;38258;51.148;14.068;2023-03-18T10:21:31;98121.69;;;9.79;56.83
52319;BME280;38258;51.148;14.068;2023-03-18T10:24:13;98117.50;;;10.01;57.16
52319;BME280;38258;51.148;14.068;2023-03-18T10:26:47;98117.81;;;9.92;56.60
52319;BME280;38258;51.148;14.068;2023-03-18T10:29:28;98113.75;;;10.39;58.06
52319;BME280;38258;51.148;14.068;2023-03-18T10:32:06;98109.38;;;10.39;56.03
52319;BME280;38258;51.148;14.068;2023-03-18T10:34:51;98094.38;;;10.73;56.63
52319;BME280;38258;51.148;14.068;2023-03-18T10:37:29;98058.47;;;10.24;53.80
52319;BME280;38258;51.148;14.068;2023-03-18T10:40:00;98125.81;;;10.98;57.35
52319;BME280;38258;51.148;14.068;2023-03-18T10:42:29;98134.94;;;11.61;52.81
52319;BME280;38258;51.148;14.068;2023-03-18T10:45:05;98088.50;;;11.17;51.84
52319;BME280;38258;51.148;14.068;2023-03-18T10:47:35;98085.97;;;11.39;53.44
52319;BME280;38258;51.148;14.068;2023-03-18T10:50:12;98131.19;;;11.19;52.09
52319;BME280;38258;51.148;14.068;2023-03-18T10:52:46;98122.84;;;11.33;54.97
52319;BME280;38258;51.148;14.068;2023-03-18T10:55:21;98103.28;;;11.67;55.46
52319;BME280;38258;51.148;14.068;2023-03-18T10:57:49;98107.75;;;11.40;55.19
52319;BME280;38258;51.148;14.068;2023-03-18T11:00:26;98081.63;;;11.14;53.79
52319;BME280;38258;51.148;14.068;2023-03-18T11:02:53;98129.22;;;11.26;55.64
52319;BME280;38258;51.148;14.068;2023-03-18T11:05:23;98137.03;;;11.27;55.75
52319;BME280;38258;51.148;14.068;2023-03-18T11:07:59;98126.00;;;11.67;55.07
52319;BME280;38258;51.148;14.068;2023-03-18T11:10:31;98130.25;;;10.42;55.19
52319;BME280;38258;51.148;14.068;2023-03-18T11:13:00;98132.69;;;10.74;55.66
52319;BME280;38258;51.148;14.068;2023-03-18T11:15:28;98134.25;;;10.53;56.18
52319;BME280;38258;51.148;14.068;2023-03-18T11:18:00;98131.72;;;10.51;54.79
52319;BME280;38258;51.148;14.068;2023-03-18T11:20:33;98072.13;;;10.32;56.20
52319;BME280;38258;51.148;14.068;2023-03-18T11:23:15;98113.22;;;10.83;58.78
52319;BME280;38258;51.148;14.068;2023-03-18T11:25:46;98133.19;;;10.85;55.70
52319;BME280;38258;51.148;14.068;2023-03-18T11:28:22;98137.19;;;10.70;58.34
52319;BME280;38258;51.148;14.068;2023-03-18T11:30:55;98133.75;;;10.95;58.61
52319;BME280;38258;51.148;14.068;2023-03-18T11:33:23;98136.28;;;10.98;58.89
52319;BME280;38258;51.148;14.068;2023-03-18T11:35:53;98140.50;;;11.02;55.87
52319;BME280;38258;51.148;14.068;2023-03-18T11:38:24;98115.91;;;10.81;56.45
52319;BME280;38258;51.148;14.068;2023-03-18T11:41:04;98144.78;;;10.78;55.60
52319;BME280;38258;51.148;14.068;2023-03-18T11:43:33;98142.34;;;10.72;56.21
52319;BME280;38258;51.148;14.068;2023-03-18T11:46:04;98138.09;;;10.42;59.37
52319;BME280;38258;51.148;14.068;2023-03-18T11:48:33;98137.19;;;10.70;60.49
52319;BME280;38258;51.148;14.068;2023-03-18T11:51:38;98131.84;;;10.46;57.87
52319;BME280;38258;51.148;14.068;2023-03-18T11:54:16;98137.22;;;10.96;57.04
52319;BME280;38258;51.148;14.068;2023-03-18T11:56:54;98139.22;;;10.87;56.97
52319;BME280;38258;51.148;14.068;2023-03-18T11:59:29;98134.78;;;10.89;55.97
52319;BME280;38258;51.148;14.068;2023-03-18T12:02:10;98134.91;;;10.86;55.39
52319;BME280;38258;51.148;14.068;2023-03-18T12:04:47;98136.47;;;10.92;57.35
52319;BME280;38258;51.148;14.068;2023-03-18T12:07:32;98138.53;;;10.82;57.58
52319;BME280;38258;51.148;14.068;2023-03-18T12:10:14;98124.31;;;10.89;58.49
52319;BME280;38258;51.148;14.068;2023-03-18T12:12:51;98128.09;;;11.08;57.66
52319;BME280;38258;51.148;14.068;2023-03-18T12:15:25;98139.47;;;11.32;57.90
52319;BME280;38258;51.148;14.068;2023-03-18T12:18:01;98125.53;;;11.06;54.61
52319;BME280;38258;51.148;14.068;2023-03-18T12:20:45;98134.19;;;11.34;55.13
52319;BME280;38258;51.148;14.068;2023-03-18T12:26:20;98123.00;;;11.03;57.89
52319;BME280;38258;51.148;14.068;2023-03-18T12:31:51;98122.75;;;11.36;59.51
52319;BME280;38258;51.148;14.068;2023-03-18T12:34:35;98122.06;;;11.55;61.67
52319;BME280;38258;51.148;14.068;2023-03-18T12:37:18;98119.97;;;11.65;58.26
52319;BME280;38258;51.148;14.068;2023-03-18T12:40:02;98131.66;;;11.80;59.00
52319;BME280;38258;51.148;14.068;2023-03-18T12:42:48;98116.31;;;11.93;55.25
52319;BME280;38258;51.148;14.068;2023-03-18T12:45:22;98120.31;;;11.79;56.90
52319;BME280;38258;51.148;14.068;2023-03-18T12:47:54;98119.84;;;12.15;54.68
52319;BME280;38258;51.148;14.068;2023-03-18T12:50:23;98130.31;;;11.92;54.59
52319;BME280;38258;51.148;14.068;2023-03-18T12:52:54;98119.28;;;11.59;54.44
52319;BME280;38258;51.148;14.068;2023-03-18T12:55:25;98114.09;;;11.34;55.23
52319;BME280;38258;51.148;14.068;2023-03-18T12:57:56;98122.13;;;11.29;56.65
52319;BME280;38258;51.148;14.068;2023-03-18T13:00:29;98124.50;;;11.36;57.36
52319;BME280;38258;51.148;14.068;2023-03-18T13:03:00;98110.09;;;11.24;56.50
52319;BME280;38258;51.148;14.068;2023-03-18T13:05:37;98120.53;;;11.49;61.31
52319;BME280;38258;51.148;14.068;2023-03-18T13:11:23;98116.03;;;11.53;56.63
52319;BME280;38258;51.148;14.068;2023-03-18T13:13:54;98107.16;;;11.81;55.33
52319;BME280;38258;51.148;14.068;2023-03-18T13:16:27;98110.41;;;11.87;54.93
52319;BME280;38258;51.148;14.068;2023-03-18T13:18:56;98105.16;;;11.87;55.26
52319;BME280;38258;51.148;14.068;2023-03-18T13:21:28;98119.25;;;11.83;55.83
52319;BME280;38258;51.148;14.068;2023-03-18T13:24:19;98132.06;;;11.43;57.35
52319;BME280;38258;51.148;14.068;2023-03-18T13:27:07;98121.53;;;11.21;55.68
52319;BME280;38258;51.148;14.068;2023-03-18T13:29:43;98122.00;;;11.07;58.30
52319;BME280;38258;51.148;14.068;2023-03-18T13:32:29;98115.09;;;11.30;60.17
52319;BME280;38258;51.148;14.068;2023-03-18T13:35:21;98118.44;;;11.35;59.76
52319;BME280;38258;51.148;14.068;2023-03-18T13:38:14;98109.66;;;11.36;58.65
52319;BME280;38258;51.148;14.068;2023-03-18T13:41:16;98108.88;;;11.34;59.21
52319;BME280;38258;51.148;14.068;2023-03-18T13:43:52;98095.09;;;11.53;59.72
52319;BME280;38258;51.148;14.068;2023-03-18T13:46:24;98097.75;;;11.51;57.40